createdAt,value
2018-12-03T00:00:10.023Z,96932.00
2018-12-03T00:02:40.256Z,96946.00
2018-12-03T00:05:10.646Z,96953.00
2018-12-03T00:07:41.010Z,96951.00
2018-12-03T00:10:11.773Z,96954.00
2018-12-03T00:12:41.964Z,96958.00
2018-12-03T00:15:12.301Z,96953.00
2018-12-03T00:17:42.696Z,96952.00
2018-12-03T00:20:13.187Z,96952.00
2018-12-03T00:22:43.469Z,96952.00
2018-12-03T00:25:13.824Z,96946.00
2018-12-03T00:27:52.555Z,96936.00
2018-12-03T00:30:23.141Z,96929.00
2018-12-03T00:32:53.398Z,96932.00
2018-12-03T00:35:23.837Z,96949.00
2018-12-03T00:37:54.031Z,96962.00
2018-12-03T00:40:24.363Z,96969.00
2018-12-03T00:42:54.712Z,96967.00
2018-12-03T00:45:25.129Z,96959.00
2018-12-03T00:47:55.649Z,96954.00
2018-12-03T00:50:32.431Z,96954.00
2018-12-03T00:53:02.798Z,96948.00
2018-12-03T00:55:33.170Z,96944.00
2018-12-03T00:58:03.420Z,96950.00
2018-12-03T01:00:33.663Z,96945.00
2018-12-03T01:03:03.953Z,96934.00
2018-12-03T01:05:34.410Z,96929.00
2018-12-03T01:08:04.677Z,96928.00
2018-12-03T01:10:35.036Z,96949.00
2018-12-03T01:13:05.768Z,96942.00
2018-12-03T01:15:36.074Z,96928.00
2018-12-03T01:18:06.535Z,96935.00
2018-12-03T01:20:36.851Z,96934.00
2018-12-03T01:23:07.279Z,96931.00
2018-12-03T01:25:38.498Z,96931.00
2018-12-03T01:28:08.943Z,96929.00
2018-12-03T01:30:39.243Z,96931.00
2018-12-03T01:33:09.393Z,96941.00
2018-12-03T01:35:39.597Z,96944.00
2018-12-03T01:38:09.874Z,96936.00
2018-12-03T01:40:40.163Z,96937.00
2018-12-03T01:43:10.699Z,96941.00
2018-12-03T01:45:40.983Z,96935.00
2018-12-03T01:48:11.230Z,96939.00
2018-12-03T01:50:41.491Z,96931.00
2018-12-03T01:53:11.838Z,96930.00
2018-12-03T01:55:42.371Z,96934.00
2018-12-03T01:58:12.715Z,96923.00
2018-12-03T02:00:42.946Z,96920.00
2018-12-03T02:03:13.289Z,96921.00
2018-12-03T02:05:43.700Z,96926.00
2018-12-03T02:08:13.893Z,96925.00
2018-12-03T02:10:44.245Z,96934.00
2018-12-03T02:13:14.577Z,96924.00
2018-12-03T02:15:44.999Z,96926.00
2018-12-03T02:18:15.467Z,96917.00
2018-12-03T02:20:45.699Z,96905.00
2018-12-03T02:23:16.007Z,96898.00
2018-12-03T02:25:46.519Z,96906.00
2018-12-03T02:28:16.954Z,96911.00
2018-12-03T02:30:52.468Z,96911.00
2018-12-03T02:33:22.941Z,96911.00
2018-12-03T02:35:53.074Z,96913.00
2018-12-03T02:38:23.379Z,96913.00
2018-12-03T02:40:53.888Z,96912.00
2018-12-03T02:43:24.432Z,96908.00
2018-12-03T02:45:54.591Z,96912.00
2018-12-03T02:48:24.960Z,96917.00
2018-12-03T02:50:55.285Z,96912.00
2018-12-03T02:53:25.514Z,96913.00
2018-12-03T02:55:55.922Z,96909.00
2018-12-03T02:58:26.319Z,96905.00
2018-12-03T03:00:56.575Z,96894.00
2018-12-03T03:03:26.889Z,96894.00
2018-12-03T03:05:57.210Z,96884.00
2018-12-03T03:08:27.689Z,96878.00
2018-12-03T03:10:57.988Z,96875.00
2018-12-03T03:13:28.120Z,96871.00
2018-12-03T03:15:58.471Z,96867.00
2018-12-03T03:18:28.882Z,96853.00
2018-12-03T03:20:59.061Z,96853.00
2018-12-03T03:23:29.413Z,96855.00
2018-12-03T03:25:59.822Z,96852.00
2018-12-03T03:28:30.285Z,96859.00
2018-12-03T03:31:00.863Z,96850.00
2018-12-03T03:33:31.181Z,96847.00
2018-12-03T03:36:01.540Z,96845.00
2018-12-03T03:38:32.104Z,96841.00
2018-12-03T03:41:02.503Z,96838.00
2018-12-03T03:43:32.797Z,96847.00
2018-12-03T03:46:03.224Z,96841.00
2018-12-03T03:48:33.643Z,96844.00
2018-12-03T03:51:03.792Z,96854.00
2018-12-03T03:53:34.127Z,96855.00
2018-12-03T03:56:04.310Z,96858.00
2018-12-03T03:58:34.902Z,96870.00
2018-12-03T04:01:05.303Z,96869.00
2018-12-03T04:03:35.508Z,96868.00
2018-12-03T04:06:05.717Z,96877.00
2018-12-03T04:08:36.197Z,96884.00
2018-12-03T04:11:06.958Z,96885.00
2018-12-03T04:13:37.496Z,96880.00
2018-12-03T04:16:07.898Z,96876.00
2018-12-03T04:18:38.049Z,96879.00
2018-12-03T04:21:08.448Z,96877.00
2018-12-03T04:23:38.854Z,96882.00
2018-12-03T04:26:09.226Z,96881.00
2018-12-03T04:28:39.590Z,96886.00
2018-12-03T04:31:09.954Z,96879.00
2018-12-03T04:33:40.337Z,96878.00
2018-12-03T04:36:10.760Z,96874.00
2018-12-03T04:38:41.132Z,96877.00
2018-12-03T04:41:11.311Z,96880.00
2018-12-03T04:43:41.663Z,96880.00
2018-12-03T04:46:11.996Z,96879.00
2018-12-03T04:48:42.555Z,96882.00
2018-12-03T04:51:12.856Z,96885.00
2018-12-03T04:53:43.160Z,96886.00
2018-12-03T04:56:13.470Z,96889.00
2018-12-03T04:58:43.901Z,96884.00
2018-12-03T05:01:14.054Z,96885.00
2018-12-03T05:03:44.402Z,96886.00
2018-12-03T05:06:14.458Z,96885.00
2018-12-03T05:08:44.697Z,96885.00
2018-12-03T05:11:14.981Z,96885.00
2018-12-03T05:13:45.327Z,96888.00
2018-12-03T05:16:15.654Z,96897.00
2018-12-03T05:18:45.904Z,96889.00
2018-12-03T05:21:16.238Z,96878.00
2018-12-03T05:23:46.638Z,96886.00
2018-12-03T05:26:17.053Z,96885.00
2018-12-03T05:28:47.361Z,96882.00
2018-12-03T05:31:22.888Z,96881.00
2018-12-03T05:33:53.162Z,96879.00
2018-12-03T05:36:23.620Z,96874.00
2018-12-03T05:38:53.781Z,96877.00
2018-12-03T05:41:24.220Z,96889.00
2018-12-03T05:43:54.551Z,96876.00
2018-12-03T05:46:24.890Z,96875.00
2018-12-03T05:48:55.210Z,96875.00
2018-12-03T05:51:25.464Z,96877.00
2018-12-03T05:53:55.762Z,96878.00
2018-12-03T05:56:26.180Z,96879.00
2018-12-03T05:58:56.378Z,96877.00
2018-12-03T06:01:26.875Z,96882.00
2018-12-03T06:03:57.055Z,96883.00
2018-12-03T06:06:27.365Z,96885.00
2018-12-03T06:08:57.729Z,96880.00
2018-12-03T06:11:28.124Z,96879.00
2018-12-03T06:13:58.438Z,96871.00
2018-12-03T06:16:28.877Z,96876.00
2018-12-03T06:18:59.259Z,96879.00
2018-12-03T06:21:29.724Z,96877.00
2018-12-03T06:24:00.916Z,96883.00
2018-12-03T06:26:31.193Z,96882.00
2018-12-03T06:29:01.542Z,96883.00
2018-12-03T06:31:31.971Z,96882.00
2018-12-03T06:34:02.276Z,96885.00
2018-12-03T06:36:32.638Z,96898.00
2018-12-03T06:39:03.141Z,96895.00
2018-12-03T06:41:33.328Z,96887.00
2018-12-03T06:44:03.588Z,96885.00
2018-12-03T06:46:33.996Z,96893.00
2018-12-03T06:49:04.442Z,96897.00
2018-12-03T06:51:34.588Z,96894.00
2018-12-03T06:54:05.090Z,96898.00
2018-12-03T06:56:35.508Z,96899.00
2018-12-03T06:59:06.083Z,96901.00
2018-12-03T07:01:36.294Z,96905.00
2018-12-03T07:04:06.978Z,96909.00
2018-12-03T07:06:37.490Z,96909.00
2018-12-03T07:09:11.899Z,96912.00
2018-12-03T07:11:42.923Z,96909.00
2018-12-03T07:14:13.282Z,96917.00
2018-12-03T07:16:43.673Z,96916.00
2018-12-03T07:19:14.081Z,96914.00
2018-12-03T07:21:44.563Z,96916.00
2018-12-03T07:24:14.810Z,96916.00
2018-12-03T07:26:45.189Z,96916.00
2018-12-03T07:29:15.661Z,96912.00
2018-12-03T07:31:46.094Z,96919.00
2018-12-03T07:34:16.296Z,96926.00
2018-12-03T07:36:46.640Z,96925.00
2018-12-03T07:39:17.020Z,96917.00
2018-12-03T07:41:47.326Z,96921.00
2018-12-03T07:44:17.681Z,96912.00
2018-12-03T07:46:48.243Z,96912.00
2018-12-03T07:49:18.706Z,96906.00
2018-12-03T07:51:48.941Z,96902.00
2018-12-03T07:54:19.258Z,96896.00
2018-12-03T07:56:49.561Z,96895.00
2018-12-03T07:59:19.730Z,96900.00
2018-12-03T08:01:50.076Z,96907.00
2018-12-03T08:04:20.821Z,96917.00
2018-12-03T08:06:51.164Z,96912.00
2018-12-03T08:09:21.438Z,96902.00
2018-12-03T08:11:51.467Z,96895.00
2018-12-03T08:14:21.753Z,96901.00
2018-12-03T08:16:52.011Z,96900.00
2018-12-03T08:19:22.406Z,96901.00
2018-12-03T08:21:52.638Z,96899.00
2018-12-03T08:24:22.975Z,96903.00
2018-12-03T08:26:53.153Z,96902.00
2018-12-03T08:29:23.573Z,96905.00
2018-12-03T08:31:53.977Z,96912.00
2018-12-03T08:34:24.349Z,96915.00
2018-12-03T08:36:54.647Z,96920.00
2018-12-03T08:39:25.088Z,96928.00
2018-12-03T08:41:55.250Z,96926.00
2018-12-03T08:44:30.293Z,96919.00
2018-12-03T08:47:08.023Z,96915.00
2018-12-03T08:49:38.830Z,96911.00
2018-12-03T08:52:13.132Z,96920.00
2018-12-03T08:54:43.290Z,96923.00
2018-12-03T08:57:13.732Z,96922.00
2018-12-03T08:59:44.059Z,96920.00
2018-12-03T09:02:14.367Z,96930.00
2018-12-03T09:04:44.772Z,96933.00
2018-12-03T09:07:15.046Z,96938.00
2018-12-03T09:09:45.424Z,96933.00
2018-12-03T09:12:15.669Z,96941.00
2018-12-03T09:14:46.030Z,96942.00
2018-12-03T09:17:16.378Z,96940.00
2018-12-03T09:19:51.121Z,96943.00
2018-12-03T09:22:21.242Z,96947.00
2018-12-03T09:24:51.533Z,96947.00
2018-12-03T09:27:28.388Z,96953.00
2018-12-03T09:30:00.885Z,96951.00
2018-12-03T09:32:34.817Z,96937.00
2018-12-03T09:35:07.077Z,96940.00
2018-12-03T09:37:37.212Z,96940.00
2018-12-03T09:40:15.714Z,96933.00
2018-12-03T09:42:46.126Z,96929.00
2018-12-03T09:45:17.778Z,96916.00
2018-12-03T09:47:48.553Z,96914.00
2018-12-03T09:50:27.466Z,96919.00
2018-12-03T09:52:58.119Z,96919.00
2018-12-03T09:55:30.039Z,96920.00
2018-12-03T09:58:13.135Z,96918.00
2018-12-03T10:00:43.923Z,96920.00
2018-12-03T10:03:34.319Z,96926.00
2018-12-03T10:06:11.593Z,96923.00
2018-12-03T10:08:41.868Z,96913.00
2018-12-03T10:11:12.336Z,96906.00
2018-12-03T10:13:42.646Z,96909.00
2018-12-03T10:16:12.950Z,96905.00
2018-12-03T10:18:47.791Z,96893.00
2018-12-03T10:21:18.077Z,96888.00
2018-12-03T10:23:48.474Z,96885.00
2018-12-03T10:26:18.760Z,96879.00
2018-12-03T10:28:49.017Z,96877.00
2018-12-03T10:31:19.270Z,96870.00
2018-12-03T10:33:49.514Z,96871.00
2018-12-03T10:36:19.738Z,96872.00
2018-12-03T10:38:50.484Z,96874.00
2018-12-03T10:41:32.201Z,96868.00
2018-12-03T10:44:03.562Z,96862.00
2018-12-03T10:46:33.701Z,96853.00
2018-12-03T10:49:08.224Z,96872.00
2018-12-03T10:51:38.813Z,96881.00
2018-12-03T10:54:09.233Z,96882.00
2018-12-03T10:56:39.424Z,96877.00
2018-12-03T10:59:09.737Z,96875.00
2018-12-03T11:01:47.176Z,96868.00
2018-12-03T11:04:22.266Z,96864.00
2018-12-03T11:06:52.683Z,96861.00
2018-12-03T11:09:25.377Z,96859.00
2018-12-03T11:11:55.825Z,96854.00
2018-12-03T11:14:26.002Z,96860.00
2018-12-03T11:16:56.336Z,96858.00
2018-12-03T11:19:26.814Z,96850.00
2018-12-03T11:21:57.244Z,96842.00
2018-12-03T11:24:27.564Z,96842.00
2018-12-03T11:27:00.172Z,96848.00
2018-12-03T11:29:30.874Z,96842.00
2018-12-03T11:32:01.215Z,96844.00
2018-12-03T11:34:31.573Z,96831.00
2018-12-03T11:37:02.902Z,96839.00
2018-12-03T11:39:45.830Z,96844.00
2018-12-03T11:42:16.350Z,96836.00
2018-12-03T11:44:46.640Z,96837.00
2018-12-03T11:47:17.037Z,96834.00
2018-12-03T11:49:47.197Z,96843.00
2018-12-03T11:52:17.642Z,96841.00
2018-12-03T11:54:47.941Z,96840.00
2018-12-03T11:57:18.141Z,96837.00
2018-12-03T11:59:48.505Z,96833.00
2018-12-03T12:02:18.956Z,96826.00
2018-12-03T12:04:49.348Z,96821.00
2018-12-03T12:07:19.481Z,96815.00
2018-12-03T12:09:49.738Z,96825.00
2018-12-03T12:12:20.048Z,96814.00
2018-12-03T12:14:50.232Z,96812.00
2018-12-03T12:17:20.375Z,96803.00
2018-12-03T12:19:50.668Z,96805.00
2018-12-03T12:22:20.867Z,96807.00
2018-12-03T12:24:51.008Z,96797.00
2018-12-03T12:27:21.422Z,96793.00
2018-12-03T12:29:51.666Z,96801.00
2018-12-03T12:32:21.928Z,96805.00
2018-12-03T12:34:52.213Z,96805.00
2018-12-03T12:37:22.678Z,96798.00
2018-12-03T12:39:52.929Z,96793.00
2018-12-03T12:42:23.270Z,96784.00
2018-12-03T12:44:59.588Z,96780.00
2018-12-03T12:47:29.485Z,96776.00
2018-12-03T12:49:59.953Z,96783.00
2018-12-03T12:52:30.121Z,96773.00
2018-12-03T12:55:00.453Z,96768.00
2018-12-03T12:57:30.837Z,96770.00
2018-12-03T13:00:01.093Z,96777.00
2018-12-03T13:02:31.458Z,96779.00
2018-12-03T13:05:01.705Z,96769.00
2018-12-03T13:07:32.101Z,96764.00
2018-12-03T13:10:02.397Z,96775.00
2018-12-03T13:12:32.600Z,96785.00
2018-12-03T13:15:03.005Z,96784.00
2018-12-03T13:17:33.396Z,96783.00
2018-12-03T13:20:03.810Z,96787.00
2018-12-03T13:22:37.876Z,96785.00
2018-12-03T13:25:16.501Z,96779.00
2018-12-03T13:27:46.969Z,96775.00
2018-12-03T13:30:17.874Z,96771.00
2018-12-03T13:32:48.617Z,96770.00
2018-12-03T13:35:18.904Z,96765.00
2018-12-03T13:37:49.077Z,96767.00
2018-12-03T13:40:19.472Z,96757.00
2018-12-03T13:42:49.861Z,96755.00
2018-12-03T13:45:24.026Z,96755.00
2018-12-03T13:47:56.278Z,96758.00
2018-12-03T13:50:26.828Z,96755.00
2018-12-03T13:52:57.357Z,96754.00
2018-12-03T13:55:27.531Z,96753.00
2018-12-03T13:57:57.955Z,96755.00
2018-12-03T14:00:28.433Z,96748.00
2018-12-03T14:03:08.433Z,96753.00
2018-12-03T14:05:51.583Z,96763.00
2018-12-03T14:09:50.949Z,96765.00
2018-12-03T14:12:37.531Z,96780.00
2018-12-03T14:15:27.557Z,96784.00
2018-12-03T14:18:16.301Z,96781.00
2018-12-03T14:20:49.686Z,96789.00
2018-12-03T14:23:25.553Z,96784.00
2018-12-03T14:25:55.969Z,96781.00
2018-12-03T14:28:27.267Z,96792.00
2018-12-03T14:30:57.668Z,96797.00
2018-12-03T14:33:28.032Z,96801.00
2018-12-03T14:35:58.513Z,96816.00
2018-12-03T14:38:29.812Z,96828.00
2018-12-03T14:41:00.197Z,96835.00
2018-12-03T14:43:30.375Z,96836.00
2018-12-03T14:46:00.840Z,96837.00
2018-12-03T14:48:31.242Z,96845.00
2018-12-03T14:51:01.451Z,96848.00
2018-12-03T14:53:31.828Z,96856.00
2018-12-03T14:56:02.241Z,96851.00
2018-12-03T14:58:32.586Z,96858.00
2018-12-03T15:01:02.893Z,96859.00
2018-12-03T15:03:33.226Z,96859.00
2018-12-03T15:06:03.607Z,96861.00
2018-12-03T15:08:33.791Z,96867.00
2018-12-03T15:11:04.185Z,96869.00
2018-12-03T15:13:34.378Z,96870.00
2018-12-03T15:16:04.841Z,96867.00
2018-12-03T15:18:35.251Z,96858.00
2018-12-03T15:21:05.523Z,96854.00
2018-12-03T15:23:35.872Z,96851.00
2018-12-03T15:26:06.384Z,96843.00
2018-12-03T15:28:36.579Z,96831.00
2018-12-03T15:31:06.909Z,96833.00
2018-12-03T15:33:37.397Z,96843.00
2018-12-03T15:36:07.605Z,96844.00
2018-12-03T15:38:37.992Z,96844.00
2018-12-03T15:41:09.060Z,96842.00
2018-12-03T15:43:40.534Z,96838.00
2018-12-03T15:46:10.877Z,96837.00
2018-12-03T15:48:41.057Z,96846.00
2018-12-03T15:51:11.626Z,96855.00
2018-12-03T15:53:42.054Z,96856.00
2018-12-03T15:56:12.447Z,96858.00
2018-12-03T15:58:42.737Z,96867.00
2018-12-03T16:01:14.490Z,96869.00
2018-12-03T16:03:43.536Z,96880.00
2018-12-03T16:06:13.991Z,96889.00
2018-12-03T16:08:44.150Z,96893.00
2018-12-03T16:11:14.522Z,96891.00
2018-12-03T16:13:44.881Z,96892.00
2018-12-03T16:16:15.197Z,96891.00
2018-12-03T16:18:45.369Z,96894.00
2018-12-03T16:21:15.722Z,96883.00
2018-12-03T16:23:46.032Z,96880.00
2018-12-03T16:26:16.471Z,96878.00
2018-12-03T16:28:47.495Z,96888.00
2018-12-03T16:31:17.801Z,96891.00
2018-12-03T16:33:48.202Z,96892.00
2018-12-03T16:36:18.597Z,96891.00
2018-12-03T16:38:48.935Z,96878.00
2018-12-03T16:41:19.083Z,96878.00
2018-12-03T16:43:49.386Z,96883.00
2018-12-03T16:46:19.735Z,96874.00
2018-12-03T16:48:49.943Z,96872.00
2018-12-03T16:51:20.303Z,96878.00
2018-12-03T16:53:50.699Z,96895.00
2018-12-03T16:56:20.781Z,96904.00
2018-12-03T16:58:51.041Z,96897.00
2018-12-03T17:01:21.365Z,96893.00
2018-12-03T17:03:51.977Z,96885.00
2018-12-03T17:06:22.509Z,96886.00
2018-12-03T17:08:52.929Z,96885.00
2018-12-03T17:11:23.236Z,96871.00
2018-12-03T17:13:53.485Z,96867.00
2018-12-03T17:16:23.794Z,96875.00
2018-12-03T17:18:54.197Z,96869.00
2018-12-03T17:22:04.264Z,96872.00
2018-12-03T17:24:38.002Z,96877.00
2018-12-03T17:27:08.528Z,96870.00
2018-12-03T17:29:38.752Z,96864.00
2018-12-03T17:32:09.048Z,96861.00
2018-12-03T17:34:39.401Z,96860.00
2018-12-03T17:37:09.775Z,96858.00
2018-12-03T17:39:40.015Z,96845.00
2018-12-03T17:42:10.244Z,96839.00
2018-12-03T17:44:40.618Z,96836.00
2018-12-03T17:47:11.022Z,96830.00
2018-12-03T17:49:41.310Z,96812.00
2018-12-03T17:52:11.686Z,96805.00
2018-12-03T17:54:41.982Z,96810.00
2018-12-03T17:57:12.552Z,96815.00
2018-12-03T17:59:42.785Z,96811.00
2018-12-03T18:02:13.180Z,96807.00
2018-12-03T18:04:43.599Z,96807.00
2018-12-03T18:07:14.044Z,96810.00
2018-12-03T18:09:44.379Z,96814.00
2018-12-03T18:12:14.956Z,96805.00
2018-12-03T18:14:45.379Z,96801.00
2018-12-03T18:17:15.835Z,96808.00
2018-12-03T18:19:46.209Z,96808.00
2018-12-03T18:22:16.534Z,96810.00
2018-12-03T18:24:46.894Z,96806.00
2018-12-03T18:27:17.236Z,96811.00
2018-12-03T18:29:47.673Z,96810.00
2018-12-03T18:32:17.994Z,96816.00
2018-12-03T18:34:48.279Z,96816.00
2018-12-03T18:37:18.755Z,96810.00
2018-12-03T18:39:49.004Z,96804.00
2018-12-03T18:42:19.336Z,96799.00
2018-12-03T18:44:49.804Z,96813.00
2018-12-03T18:47:20.101Z,96816.00
2018-12-03T18:49:53.410Z,96826.00
2018-12-03T18:52:24.585Z,96833.00
2018-12-03T18:54:54.975Z,96837.00
2018-12-03T18:57:25.426Z,96833.00
2018-12-03T18:59:55.875Z,96831.00
2018-12-03T19:02:26.186Z,96824.00
2018-12-03T19:04:56.490Z,96799.00
2018-12-03T19:07:26.902Z,96774.00
2018-12-03T19:09:57.333Z,96761.00
2018-12-03T19:12:27.562Z,96759.00
2018-12-03T19:14:57.948Z,96768.00
2018-12-03T19:17:28.334Z,96777.00
2018-12-03T19:19:58.760Z,96771.00
2018-12-03T19:22:29.181Z,96763.00
2018-12-03T19:24:59.421Z,96760.00
2018-12-03T19:27:29.717Z,96755.00
2018-12-03T19:30:00.113Z,96761.00
2018-12-03T19:32:30.512Z,96770.00
2018-12-03T19:35:00.862Z,96770.00
2018-12-03T19:37:31.149Z,96758.00
2018-12-03T19:40:01.431Z,96764.00
2018-12-03T19:42:31.810Z,96756.00
2018-12-03T19:45:02.164Z,96753.00
2018-12-03T19:47:32.383Z,96766.00
2018-12-03T19:50:02.785Z,96774.00
2018-12-03T19:52:33.197Z,96778.00
2018-12-03T19:55:04.097Z,96777.00
2018-12-03T19:57:35.803Z,96784.00
2018-12-03T20:00:09.624Z,96797.00
2018-12-03T20:02:40.018Z,96795.00
2018-12-03T20:05:18.207Z,96794.00
2018-12-03T20:07:48.534Z,96796.00
2018-12-03T20:10:18.924Z,96788.00
2018-12-03T20:12:49.283Z,96778.00
2018-12-03T20:15:19.594Z,96773.00
2018-12-03T20:17:49.997Z,96764.00
2018-12-03T20:20:27.305Z,96756.00
2018-12-03T20:23:04.367Z,96746.00
2018-12-03T20:25:48.156Z,96736.00
2018-12-03T20:28:26.045Z,96747.00
2018-12-03T20:33:07.394Z,96746.00
2018-12-03T20:36:19.806Z,96752.00
2018-12-03T20:39:35.501Z,96758.00
2018-12-03T20:42:06.437Z,96762.00
2018-12-03T20:44:52.473Z,96764.00
2018-12-03T20:47:30.134Z,96770.00
2018-12-03T20:50:45.046Z,96768.00
2018-12-03T20:53:19.249Z,96766.00
2018-12-03T20:55:50.038Z,96758.00
2018-12-03T20:58:20.715Z,96759.00
2018-12-03T21:00:51.368Z,96750.00
2018-12-03T21:03:21.595Z,96749.00
2018-12-03T21:05:51.974Z,96754.00
2018-12-03T21:08:22.485Z,96749.00
2018-12-03T21:10:52.987Z,96738.00
2018-12-03T21:13:23.541Z,96734.00
2018-12-03T21:15:55.175Z,96730.00
2018-12-03T21:18:26.021Z,96724.00
2018-12-03T21:20:56.519Z,96723.00
2018-12-03T21:23:27.113Z,96720.00
2018-12-03T21:25:57.778Z,96719.00
2018-12-03T21:28:28.358Z,96711.00
2018-12-03T21:30:58.597Z,96712.00
2018-12-03T21:33:29.031Z,96719.00
2018-12-03T21:35:59.658Z,96715.00
2018-12-03T21:38:30.037Z,96728.00
2018-12-03T21:41:00.328Z,96730.00
2018-12-03T21:43:30.718Z,96730.00
2018-12-03T21:46:00.991Z,96719.00
2018-12-03T21:48:31.385Z,96718.00
2018-12-03T21:51:01.809Z,96713.00
2018-12-03T21:53:32.437Z,96707.00
2018-12-03T21:56:02.715Z,96710.00
2018-12-03T21:58:32.929Z,96705.00
2018-12-03T22:01:03.250Z,96698.00
2018-12-03T22:03:33.513Z,96694.00
2018-12-03T22:06:03.925Z,96694.00
2018-12-03T22:08:34.486Z,96705.00
2018-12-03T22:11:04.846Z,96699.00
2018-12-03T22:13:35.194Z,96686.00
2018-12-03T22:16:05.626Z,96693.00
2018-12-03T22:18:36.000Z,96697.00
2018-12-03T22:21:06.382Z,96687.00
2018-12-03T22:23:36.804Z,96683.00
2018-12-03T22:26:07.176Z,96682.00
2018-12-03T22:28:37.659Z,96677.00
2018-12-03T22:31:08.133Z,96687.00
2018-12-03T22:33:38.792Z,96694.00
2018-12-03T22:36:09.356Z,96693.00
2018-12-03T22:38:39.625Z,96691.00
2018-12-03T22:41:09.994Z,96683.00
2018-12-03T22:43:40.575Z,96668.00
2018-12-03T22:46:10.981Z,96668.00
2018-12-03T22:48:41.419Z,96675.00
2018-12-03T22:51:11.766Z,96669.00
2018-12-03T22:53:42.136Z,96665.00
2018-12-03T22:56:12.556Z,96670.00
2018-12-03T22:58:42.997Z,96673.00
2018-12-03T23:01:13.255Z,96672.00
2018-12-03T23:03:43.572Z,96670.00
2018-12-03T23:06:14.005Z,96669.00
2018-12-03T23:08:44.148Z,96663.00
2018-12-03T23:11:14.499Z,96660.00
2018-12-03T23:13:44.816Z,96664.00
2018-12-03T23:16:15.225Z,96677.00
2018-12-03T23:18:45.476Z,96663.00
2018-12-03T23:21:15.956Z,96641.00
2018-12-03T23:23:46.230Z,96635.00
2018-12-03T23:26:16.501Z,96628.00
2018-12-03T23:28:46.791Z,96638.00
2018-12-03T23:31:17.194Z,96648.00
2018-12-03T23:33:47.700Z,96648.00
2018-12-03T23:36:18.566Z,96639.00
2018-12-03T23:38:48.848Z,96636.00
2018-12-03T23:41:19.736Z,96633.00
2018-12-03T23:43:49.944Z,96633.00
2018-12-03T23:46:20.790Z,96621.00
2018-12-03T23:48:51.008Z,96621.00
2018-12-03T23:51:21.184Z,96624.00
2018-12-03T23:53:51.376Z,96619.00
2018-12-03T23:56:21.625Z,96628.00
2018-12-03T23:58:52.091Z,96628.00
